sensor_id;sensor_type;location;lat;lon;timestamp;P1;durP1;ratioP1;P2;durP2;ratioP2
75971;SDS011;64651;47.540;19.088;2023-05-07T00:00:27;13.98;;;8.25;;
75971;SDS011;64651;47.540;19.088;2023-05-07T00:05:30;15.20;;;9.00;;
75971;SDS011;64651;47.540;19.088;2023-05-07T00:10:32;16.37;;;10.32;;
75971;SDS011;64651;47.540;19.088;2023-05-07T00:15:34;15.67;;;10.30;;
75971;SDS011;64651;47.540;19.088;2023-05-07T00:20:36;14.82;;;9.48;;
75971;SDS011;64651;47.540;19.088;2023-05-07T00:25:38;15.13;;;9.82;;
75971;SDS011;64651;47.540;19.088;2023-05-07T00:30:41;17.70;;;10.95;;
75971;SDS011;64651;47.540;19.088;2023-05-07T00:35:43;19.77;;;11.95;;
75971;SDS011;64651;47.540;19.088;2023-05-07T00:40:45;22.97;;;14.00;;
75971;SDS011;64651;47.540;19.088;2023-05-07T00:45:48;22.50;;;14.65;;
75971;SDS011;64651;47.540;19.088;2023-05-07T00:50:51;25.25;;;16.20;;
75971;SDS011;64651;47.540;19.088;2023-05-07T00:55:53;25.48;;;16.15;;
75971;SDS011;64651;47.540;19.088;2023-05-07T01:00:56;25.88;;;16.75;;
75971;SDS011;64651;47.540;19.088;2023-05-07T01:05:58;27.47;;;16.87;;
75971;SDS011;64651;47.540;19.088;2023-05-07T01:11:03;25.35;;;16.30;;
75971;SDS011;64651;47.540;19.088;2023-05-07T01:16:06;23.95;;;15.23;;
75971;SDS011;64651;47.540;19.088;2023-05-07T01:21:10;24.08;;;14.18;;
75971;SDS011;64651;47.540;19.088;2023-05-07T01:26:13;19.85;;;12.20;;
75971;SDS011;64651;47.540;19.088;2023-05-07T01:31:15;20.60;;;12.77;;
75971;SDS011;64651;47.540;19.088;2023-05-07T01:36:19;20.80;;;13.55;;
75971;SDS011;64651;47.540;19.088;2023-05-07T01:41:25;22.27;;;15.00;;
75971;SDS011;64651;47.540;19.088;2023-05-07T01:46:28;23.62;;;15.20;;
75971;SDS011;64651;47.540;19.088;2023-05-07T01:51:31;25.67;;;16.17;;
75971;SDS011;64651;47.540;19.088;2023-05-07T01:56:35;27.13;;;16.47;;
75971;SDS011;64651;47.540;19.088;2023-05-07T02:01:37;25.15;;;16.33;;
75971;SDS011;64651;47.540;19.088;2023-05-07T02:06:39;29.50;;;17.17;;
75971;SDS011;64651;47.540;19.088;2023-05-07T02:11:41;29.98;;;18.17;;
75971;SDS011;64651;47.540;19.088;2023-05-07T02:16:44;25.60;;;16.52;;
75971;SDS011;64651;47.540;19.088;2023-05-07T02:21:46;22.80;;;13.77;;
75971;SDS011;64651;47.540;19.088;2023-05-07T02:26:49;23.70;;;14.95;;
75971;SDS011;64651;47.540;19.088;2023-05-07T02:31:51;26.05;;;15.25;;
75971;SDS011;64651;47.540;19.088;2023-05-07T02:36:54;23.42;;;14.63;;
75971;SDS011;64651;47.540;19.088;2023-05-07T02:41:57;24.37;;;14.87;;
75971;SDS011;64651;47.540;19.088;2023-05-07T02:46:59;22.50;;;13.43;;
75971;SDS011;64651;47.540;19.088;2023-05-07T02:52:02;21.30;;;13.68;;
75971;SDS011;64651;47.540;19.088;2023-05-07T02:57:06;23.00;;;13.15;;
75971;SDS011;64651;47.540;19.088;2023-05-07T03:02:08;22.52;;;12.27;;
75971;SDS011;64651;47.540;19.088;2023-05-07T03:07:11;20.35;;;11.90;;
75971;SDS011;64651;47.540;19.088;2023-05-07T03:12:13;20.37;;;12.17;;
75971;SDS011;64651;47.540;19.088;2023-05-07T03:17:15;18.92;;;11.73;;
75971;SDS011;64651;47.540;19.088;2023-05-07T03:22:18;20.92;;;12.23;;
75971;SDS011;64651;47.540;19.088;2023-05-07T03:27:20;18.40;;;11.20;;
75971;SDS011;64651;47.540;19.088;2023-05-07T03:32:22;15.90;;;9.43;;
75971;SDS011;64651;47.540;19.088;2023-05-07T03:37:24;17.90;;;10.17;;
75971;SDS011;64651;47.540;19.088;2023-05-07T03:42:27;16.08;;;9.45;;
75971;SDS011;64651;47.540;19.088;2023-05-07T03:47:30;15.93;;;9.07;;
75971;SDS011;64651;47.540;19.088;2023-05-07T03:52:32;15.80;;;9.80;;
75971;SDS011;64651;47.540;19.088;2023-05-07T03:57:35;16.08;;;9.07;;
75971;SDS011;64651;47.540;19.088;2023-05-07T04:02:37;14.83;;;9.33;;
75971;SDS011;64651;47.540;19.088;2023-05-07T04:07:39;16.23;;;9.55;;
75971;SDS011;64651;47.540;19.088;2023-05-07T04:12:41;16.50;;;10.00;;
75971;SDS011;64651;47.540;19.088;2023-05-07T04:17:44;16.92;;;10.15;;
75971;SDS011;64651;47.540;19.088;2023-05-07T04:22:46;16.90;;;9.95;;
75971;SDS011;64651;47.540;19.088;2023-05-07T04:27:48;18.73;;;10.30;;
75971;SDS011;64651;47.540;19.088;2023-05-07T04:32:50;16.98;;;10.45;;
75971;SDS011;64651;47.540;19.088;2023-05-07T04:37:54;17.23;;;10.20;;
75971;SDS011;64651;47.540;19.088;2023-05-07T04:42:56;16.98;;;10.70;;
75971;SDS011;64651;47.540;19.088;2023-05-07T04:47:58;19.30;;;10.25;;
75971;SDS011;64651;47.540;19.088;2023-05-07T04:53:01;17.70;;;11.07;;
75971;SDS011;64651;47.540;19.088;2023-05-07T04:58:06;18.05;;;10.82;;
75971;SDS011;64651;47.540;19.088;2023-05-07T05:03:08;18.27;;;11.30;;
75971;SDS011;64651;47.540;19.088;2023-05-07T05:08:11;16.90;;;11.12;;
75971;SDS011;64651;47.540;19.088;2023-05-07T05:13:13;17.55;;;11.12;;
75971;SDS011;64651;47.540;19.088;2023-05-07T05:18:15;21.13;;;11.50;;
75971;SDS011;64651;47.540;19.088;2023-05-07T05:23:18;21.05;;;12.85;;
75971;SDS011;64651;47.540;19.088;2023-05-07T05:28:20;18.37;;;11.90;;
75971;SDS011;64651;47.540;19.088;2023-05-07T05:33:22;17.75;;;11.10;;
75971;SDS011;64651;47.540;19.088;2023-05-07T05:38:25;17.62;;;10.57;;
75971;SDS011;64651;47.540;19.088;2023-05-07T05:43:27;17.30;;;9.63;;
75971;SDS011;64651;47.540;19.088;2023-05-07T05:48:29;15.63;;;10.25;;
75971;SDS011;64651;47.540;19.088;2023-05-07T05:53:32;15.20;;;9.32;;
75971;SDS011;64651;47.540;19.088;2023-05-07T05:58:37;14.53;;;9.27;;
75971;SDS011;64651;47.540;19.088;2023-05-07T06:03:40;15.38;;;9.13;;
75971;SDS011;64651;47.540;19.088;2023-05-07T06:08:42;13.80;;;9.00;;
75971;SDS011;64651;47.540;19.088;2023-05-07T06:13:44;15.57;;;9.27;;
75971;SDS011;64651;47.540;19.088;2023-05-07T06:18:46;15.15;;;9.48;;
75971;SDS011;64651;47.540;19.088;2023-05-07T06:23:48;15.23;;;9.47;;
75971;SDS011;64651;47.540;19.088;2023-05-07T06:28:52;16.62;;;11.50;;
75971;SDS011;64651;47.540;19.088;2023-05-07T06:33:54;18.00;;;11.60;;
75971;SDS011;64651;47.540;19.088;2023-05-07T06:38:57;15.45;;;9.85;;
75971;SDS011;64651;47.540;19.088;2023-05-07T06:43:59;16.27;;;9.98;;
75971;SDS011;64651;47.540;19.088;2023-05-07T06:49:01;17.37;;;9.33;;
75971;SDS011;64651;47.540;19.088;2023-05-07T06:54:04;15.13;;;9.73;;
75971;SDS011;64651;47.540;19.088;2023-05-07T06:59:06;15.80;;;9.00;;
75971;SDS011;64651;47.540;19.088;2023-05-07T07:04:09;16.37;;;10.73;;
75971;SDS011;64651;47.540;19.088;2023-05-07T07:09:11;14.50;;;10.00;;
75971;SDS011;64651;47.540;19.088;2023-05-07T07:14:13;14.90;;;9.17;;
75971;SDS011;64651;47.540;19.088;2023-05-07T07:19:16;11.98;;;7.78;;
75971;SDS011;64651;47.540;19.088;2023-05-07T07:24:18;12.53;;;8.37;;
75971;SDS011;64651;47.540;19.088;2023-05-07T07:29:23;12.27;;;8.00;;
75971;SDS011;64651;47.540;19.088;2023-05-07T07:34:27;12.00;;;7.70;;
75971;SDS011;64651;47.540;19.088;2023-05-07T07:39:29;8.80;;;6.00;;
75971;SDS011;64651;47.540;19.088;2023-05-07T07:44:31;12.27;;;7.95;;
75971;SDS011;64651;47.540;19.088;2023-05-07T07:49:34;11.97;;;8.00;;
75971;SDS011;64651;47.540;19.088;2023-05-07T07:54:37;12.73;;;8.55;;
75971;SDS011;64651;47.540;19.088;2023-05-07T07:59:39;10.82;;;8.57;;
75971;SDS011;64651;47.540;19.088;2023-05-07T08:04:44;11.60;;;8.37;;
75971;SDS011;64651;47.540;19.088;2023-05-07T08:09:47;12.02;;;8.63;;
75971;SDS011;64651;47.540;19.088;2023-05-07T08:14:50;12.20;;;7.70;;
75971;SDS011;64651;47.540;19.088;2023-05-07T08:19:52;9.27;;;6.35;;
75971;SDS011;64651;47.540;19.088;2023-05-07T08:25:03;9.90;;;5.62;;
75971;SDS011;64651;47.540;19.088;2023-05-07T08:30:07;8.37;;;4.70;;
75971;SDS011;64651;47.540;19.088;2023-05-07T08:35:10;8.05;;;5.20;;
75971;SDS011;64651;47.540;19.088;2023-05-07T08:40:12;7.80;;;4.93;;
75971;SDS011;64651;47.540;19.088;2023-05-07T08:45:15;7.70;;;4.55;;
75971;SDS011;64651;47.540;19.088;2023-05-07T08:50:20;7.37;;;4.35;;
75971;SDS011;64651;47.540;19.088;2023-05-07T08:55:23;7.43;;;4.17;;
75971;SDS011;64651;47.540;19.088;2023-05-07T09:00:26;7.80;;;4.07;;
75971;SDS011;64651;47.540;19.088;2023-05-07T09:05:28;6.80;;;3.77;;
75971;SDS011;64651;47.540;19.088;2023-05-07T09:10:32;6.93;;;3.80;;
75971;SDS011;64651;47.540;19.088;2023-05-07T09:15:35;6.60;;;3.53;;
75971;SDS011;64651;47.540;19.088;2023-05-07T09:20:37;7.73;;;3.90;;
75971;SDS011;64651;47.540;19.088;2023-05-07T09:25:39;6.87;;;4.55;;
75971;SDS011;64651;47.540;19.088;2023-05-07T09:30:42;7.03;;;5.23;;
75971;SDS011;64651;47.540;19.088;2023-05-07T09:35:44;7.05;;;5.20;;
75971;SDS011;64651;47.540;19.088;2023-05-07T09:40:47;6.87;;;5.03;;
75971;SDS011;64651;47.540;19.088;2023-05-07T09:45:50;7.93;;;6.90;;
75971;SDS011;64651;47.540;19.088;2023-05-07T09:50:54;8.95;;;7.43;;
75971;SDS011;64651;47.540;19.088;2023-05-07T09:56:01;9.00;;;8.07;;
75971;SDS011;64651;47.540;19.088;2023-05-07T10:01:06;8.48;;;7.57;;
75971;SDS011;64651;47.540;19.088;2023-05-07T10:06:09;9.55;;;7.85;;
75971;SDS011;64651;47.540;19.088;2023-05-07T10:11:12;9.27;;;7.37;;
75971;SDS011;64651;47.540;19.088;2023-05-07T10:16:16;8.25;;;7.37;;
75971;SDS011;64651;47.540;19.088;2023-05-07T10:21:20;9.00;;;6.70;;
75971;SDS011;64651;47.540;19.088;2023-05-07T10:26:25;8.63;;;6.22;;
75971;SDS011;64651;47.540;19.088;2023-05-07T10:36:45;9.07;;;6.30;;
75971;SDS011;64651;47.540;19.088;2023-05-07T10:41:49;7.62;;;5.75;;
75971;SDS011;64651;47.540;19.088;2023-05-07T10:57:33;8.75;;;6.22;;
75971;SDS011;64651;47.540;19.088;2023-05-07T11:08:01;9.02;;;7.18;;
75971;SDS011;64651;47.540;19.088;2023-05-07T11:13:04;8.90;;;7.33;;
75971;SDS011;64651;47.540;19.088;2023-05-07T11:18:08;8.40;;;7.47;;
75971;SDS011;64651;47.540;19.088;2023-05-07T11:28:37;10.20;;;9.20;;
75971;SDS011;64651;47.540;19.088;2023-05-07T11:33:40;9.95;;;8.95;;
75971;SDS011;64651;47.540;19.088;2023-05-07T11:38:42;11.60;;;10.60;;
75971;SDS011;64651;47.540;19.088;2023-05-07T11:43:54;10.90;;;9.90;;
75971;SDS011;64651;47.540;19.088;2023-05-07T11:48:58;11.40;;;10.30;;
75971;SDS011;64651;47.540;19.088;2023-05-07T11:54:05;11.63;;;10.63;;
75971;SDS011;64651;47.540;19.088;2023-05-07T11:59:16;11.43;;;10.32;;
75971;SDS011;64651;47.540;19.088;2023-05-07T12:04:20;11.63;;;10.63;;
75971;SDS011;64651;47.540;19.088;2023-05-07T12:09:23;10.65;;;9.68;;
75971;SDS011;64651;47.540;19.088;2023-05-07T12:14:28;12.37;;;11.18;;
75971;SDS011;64651;47.540;19.088;2023-05-07T12:19:31;12.77;;;11.67;;
75971;SDS011;64651;47.540;19.088;2023-05-07T12:24:46;11.73;;;10.73;;
75971;SDS011;64651;47.540;19.088;2023-05-07T12:29:50;12.63;;;11.53;;
75971;SDS011;64651;47.540;19.088;2023-05-07T12:34:52;11.68;;;10.55;;
75971;SDS011;64651;47.540;19.088;2023-05-07T12:40:08;12.10;;;10.90;;
75971;SDS011;64651;47.540;19.088;2023-05-07T12:45:12;11.27;;;10.27;;
75971;SDS011;64651;47.540;19.088;2023-05-07T12:50:18;10.98;;;9.98;;
75971;SDS011;64651;47.540;19.088;2023-05-07T12:55:22;9.77;;;8.77;;
75971;SDS011;64651;47.540;19.088;2023-05-07T13:05:37;9.18;;;7.62;;
75971;SDS011;64651;47.540;19.088;2023-05-07T13:10:39;9.90;;;7.57;;
75971;SDS011;64651;47.540;19.088;2023-05-07T13:15:41;9.15;;;6.93;;
75971;SDS011;64651;47.540;19.088;2023-05-07T13:20:43;8.40;;;7.10;;
75971;SDS011;64651;47.540;19.088;2023-05-07T13:25:46;9.75;;;7.97;;
75971;SDS011;64651;47.540;19.088;2023-05-07T13:30:48;9.73;;;8.18;;
75971;SDS011;64651;47.540;19.088;2023-05-07T13:35:51;8.43;;;7.37;;
75971;SDS011;64651;47.540;19.088;2023-05-07T13:40:53;8.45;;;7.55;;
75971;SDS011;64651;47.540;19.088;2023-05-07T13:45:55;9.70;;;8.23;;
75971;SDS011;64651;47.540;19.088;2023-05-07T13:50:57;9.98;;;8.15;;
75971;SDS011;64651;47.540;19.088;2023-05-07T13:55:59;8.82;;;7.75;;
75971;SDS011;64651;47.540;19.088;2023-05-07T14:01:02;9.90;;;8.90;;
75971;SDS011;64651;47.540;19.088;2023-05-07T14:06:04;11.35;;;7.22;;
75971;SDS011;64651;47.540;19.088;2023-05-07T14:11:06;8.40;;;7.00;;
75971;SDS011;64651;47.540;19.088;2023-05-07T14:16:08;10.90;;;7.57;;
75971;SDS011;64651;47.540;19.088;2023-05-07T14:21:12;10.07;;;7.93;;
75971;SDS011;64651;47.540;19.088;2023-05-07T14:26:14;8.63;;;7.50;;
75971;SDS011;64651;47.540;19.088;2023-05-07T14:31:17;9.60;;;7.15;;
75971;SDS011;64651;47.540;19.088;2023-05-07T14:36:19;8.60;;;7.03;;
75971;SDS011;64651;47.540;19.088;2023-05-07T14:41:23;8.80;;;7.28;;
75971;SDS011;64651;47.540;19.088;2023-05-07T14:46:25;9.32;;;7.70;;
75971;SDS011;64651;47.540;19.088;2023-05-07T14:51:27;9.07;;;7.67;;
75971;SDS011;64651;47.540;19.088;2023-05-07T14:56:30;9.75;;;7.97;;
75971;SDS011;64651;47.540;19.088;2023-05-07T15:01:34;9.77;;;7.63;;
75971;SDS011;64651;47.540;19.088;2023-05-07T15:06:36;11.50;;;7.55;;
75971;SDS011;64651;47.540;19.088;2023-05-07T15:11:39;10.27;;;8.05;;
75971;SDS011;64651;47.540;19.088;2023-05-07T15:16:41;10.17;;;7.93;;
75971;SDS011;64651;47.540;19.088;2023-05-07T15:21:43;10.55;;;7.80;;
75971;SDS011;64651;47.540;19.088;2023-05-07T15:26:46;9.53;;;7.33;;
75971;SDS011;64651;47.540;19.088;2023-05-07T15:31:52;9.68;;;6.85;;
75971;SDS011;64651;47.540;19.088;2023-05-07T15:36:54;8.48;;;6.22;;
75971;SDS011;64651;47.540;19.088;2023-05-07T15:41:58;9.40;;;6.33;;
75971;SDS011;64651;47.540;19.088;2023-05-07T15:47:01;8.82;;;6.25;;
75971;SDS011;64651;47.540;19.088;2023-05-07T15:52:03;8.10;;;5.57;;
75971;SDS011;64651;47.540;19.088;2023-05-07T15:57:05;8.55;;;5.00;;
75971;SDS011;64651;47.540;19.088;2023-05-07T16:02:08;8.27;;;4.18;;
75971;SDS011;64651;47.540;19.088;2023-05-07T16:07:11;7.90;;;5.20;;
75971;SDS011;64651;47.540;19.088;2023-05-07T16:12:13;7.62;;;4.70;;
75971;SDS011;64651;47.540;19.088;2023-05-07T16:17:16;7.20;;;4.70;;
75971;SDS011;64651;47.540;19.088;2023-05-07T16:22:18;7.32;;;3.87;;
75971;SDS011;64651;47.540;19.088;2023-05-07T16:27:21;8.30;;;4.00;;
75971;SDS011;64651;47.540;19.088;2023-05-07T16:32:23;6.53;;;3.53;;
75971;SDS011;64651;47.540;19.088;2023-05-07T16:37:25;7.35;;;3.80;;
75971;SDS011;64651;47.540;19.088;2023-05-07T16:42:27;9.03;;;3.80;;
75971;SDS011;64651;47.540;19.088;2023-05-07T16:47:30;11.52;;;3.47;;
75971;SDS011;64651;47.540;19.088;2023-05-07T16:52:32;6.68;;;3.45;;
75971;SDS011;64651;47.540;19.088;2023-05-07T16:57:35;7.00;;;3.53;;
75971;SDS011;64651;47.540;19.088;2023-05-07T17:02:37;7.70;;;3.25;;
75971;SDS011;64651;47.540;19.088;2023-05-07T17:07:41;7.33;;;3.43;;
75971;SDS011;64651;47.540;19.088;2023-05-07T17:12:43;7.22;;;3.83;;
75971;SDS011;64651;47.540;19.088;2023-05-07T17:17:46;7.03;;;3.50;;
75971;SDS011;64651;47.540;19.088;2023-05-07T17:22:48;7.40;;;3.33;;
75971;SDS011;64651;47.540;19.088;2023-05-07T17:27:50;6.05;;;2.87;;
75971;SDS011;64651;47.540;19.088;2023-05-07T17:32:53;7.10;;;3.00;;
75971;SDS011;64651;47.540;19.088;2023-05-07T17:38:10;7.15;;;2.83;;
75971;SDS011;64651;47.540;19.088;2023-05-07T17:43:12;8.05;;;2.78;;
75971;SDS011;64651;47.540;19.088;2023-05-07T17:48:14;8.47;;;3.40;;
75971;SDS011;64651;47.540;19.088;2023-05-07T17:53:18;7.25;;;3.12;;
75971;SDS011;64651;47.540;19.088;2023-05-07T17:58:20;7.70;;;3.10;;
75971;SDS011;64651;47.540;19.088;2023-05-07T18:03:23;7.55;;;3.58;;
75971;SDS011;64651;47.540;19.088;2023-05-07T18:08:25;8.50;;;3.40;;
75971;SDS011;64651;47.540;19.088;2023-05-07T18:13:28;8.77;;;3.67;;
75971;SDS011;64651;47.540;19.088;2023-05-07T18:18:30;7.05;;;3.05;;
75971;SDS011;64651;47.540;19.088;2023-05-07T18:23:33;7.30;;;3.47;;
75971;SDS011;64651;47.540;19.088;2023-05-07T18:28:37;7.95;;;3.85;;
75971;SDS011;64651;47.540;19.088;2023-05-07T18:33:39;8.07;;;3.67;;
75971;SDS011;64651;47.540;19.088;2023-05-07T18:38:41;8.23;;;3.83;;
75971;SDS011;64651;47.540;19.088;2023-05-07T18:43:44;9.05;;;4.00;;
75971;SDS011;64651;47.540;19.088;2023-05-07T18:48:46;8.40;;;3.80;;
75971;SDS011;64651;47.540;19.088;2023-05-07T18:53:48;8.43;;;3.80;;
75971;SDS011;64651;47.540;19.088;2023-05-07T18:58:50;8.57;;;3.95;;
75971;SDS011;64651;47.540;19.088;2023-05-07T19:03:53;9.57;;;4.25;;
75971;SDS011;64651;47.540;19.088;2023-05-07T19:08:55;9.93;;;4.90;;
75971;SDS011;64651;47.540;19.088;2023-05-07T19:13:57;11.03;;;5.67;;
75971;SDS011;64651;47.540;19.088;2023-05-07T19:19:01;13.90;;;5.90;;
75971;SDS011;64651;47.540;19.088;2023-05-07T19:24:03;13.93;;;6.43;;
75971;SDS011;64651;47.540;19.088;2023-05-07T19:29:06;13.10;;;6.15;;
75971;SDS011;64651;47.540;19.088;2023-05-07T19:34:19;10.90;;;5.30;;
75971;SDS011;64651;47.540;19.088;2023-05-07T19:39:21;9.47;;;4.67;;
75971;SDS011;64651;47.540;19.088;2023-05-07T19:44:23;9.43;;;4.55;;
75971;SDS011;64651;47.540;19.088;2023-05-07T19:49:25;8.70;;;4.10;;
75971;SDS011;64651;47.540;19.088;2023-05-07T19:54:28;10.10;;;4.93;;
75971;SDS011;64651;47.540;19.088;2023-05-07T19:59:30;10.82;;;4.32;;
75971;SDS011;64651;47.540;19.088;2023-05-07T20:04:32;7.83;;;3.50;;
75971;SDS011;64651;47.540;19.088;2023-05-07T20:09:38;8.07;;;3.37;;
75971;SDS011;64651;47.540;19.088;2023-05-07T20:14:41;9.15;;;4.05;;
75971;SDS011;64651;47.540;19.088;2023-05-07T20:19:43;9.70;;;3.85;;
75971;SDS011;64651;47.540;19.088;2023-05-07T20:24:45;9.52;;;3.90;;
75971;SDS011;64651;47.540;19.088;2023-05-07T20:29:47;7.87;;;3.33;;
75971;SDS011;64651;47.540;19.088;2023-05-07T20:34:49;8.10;;;3.50;;
75971;SDS011;64651;47.540;19.088;2023-05-07T20:39:52;9.23;;;3.70;;
75971;SDS011;64651;47.540;19.088;2023-05-07T20:44:54;8.00;;;3.40;;
75971;SDS011;64651;47.540;19.088;2023-05-07T20:49:56;9.05;;;3.30;;
75971;SDS011;64651;47.540;19.088;2023-05-07T20:54:59;8.17;;;3.53;;
75971;SDS011;64651;47.540;19.088;2023-05-07T21:00:01;10.35;;;3.62;;
75971;SDS011;64651;47.540;19.088;2023-05-07T21:05:04;9.93;;;3.28;;
75971;SDS011;64651;47.540;19.088;2023-05-07T21:10:08;7.40;;;3.05;;
75971;SDS011;64651;47.540;19.088;2023-05-07T21:15:10;7.72;;;3.30;;
75971;SDS011;64651;47.540;19.088;2023-05-07T21:20:13;8.33;;;3.40;;
75971;SDS011;64651;47.540;19.088;2023-05-07T21:25:15;8.32;;;3.55;;
75971;SDS011;64651;47.540;19.088;2023-05-07T21:30:18;8.75;;;3.60;;
75971;SDS011;64651;47.540;19.088;2023-05-07T21:35:20;9.05;;;3.65;;
75971;SDS011;64651;47.540;19.088;2023-05-07T21:40:22;8.30;;;3.60;;
75971;SDS011;64651;47.540;19.088;2023-05-07T21:45:25;9.03;;;3.70;;
75971;SDS011;64651;47.540;19.088;2023-05-07T21:50:27;7.35;;;3.22;;
75971;SDS011;64651;47.540;19.088;2023-05-07T21:55:29;7.70;;;3.20;;
75971;SDS011;64651;47.540;19.088;2023-05-07T22:00:32;8.52;;;3.50;;
75971;SDS011;64651;47.540;19.088;2023-05-07T22:05:34;8.38;;;3.20;;
75971;SDS011;64651;47.540;19.088;2023-05-07T22:10:36;8.57;;;3.40;;
75971;SDS011;64651;47.540;19.088;2023-05-07T22:15:39;10.98;;;3.60;;
75971;SDS011;64651;47.540;19.088;2023-05-07T22:20:57;8.38;;;3.60;;
75971;SDS011;64651;47.540;19.088;2023-05-07T22:25:59;8.18;;;3.22;;
75971;SDS011;64651;47.540;19.088;2023-05-07T22:31:02;8.90;;;3.42;;
75971;SDS011;64651;47.540;19.088;2023-05-07T22:36:04;8.70;;;3.80;;
75971;SDS011;64651;47.540;19.088;2023-05-07T22:41:08;8.77;;;3.45;;
75971;SDS011;64651;47.540;19.088;2023-05-07T22:46:10;9.25;;;3.70;;
75971;SDS011;64651;47.540;19.088;2023-05-07T22:51:12;8.73;;;3.80;;
75971;SDS011;64651;47.540;19.088;2023-05-07T22:56:15;8.98;;;3.80;;
75971;SDS011;64651;47.540;19.088;2023-05-07T23:01:17;9.67;;;3.90;;
75971;SDS011;64651;47.540;19.088;2023-05-07T23:06:20;10.77;;;4.20;;
75971;SDS011;64651;47.540;19.088;2023-05-07T23:11:22;10.35;;;3.92;;
75971;SDS011;64651;47.540;19.088;2023-05-07T23:16:24;9.75;;;3.97;;
75971;SDS011;64651;47.540;19.088;2023-05-07T23:21:26;12.15;;;4.20;;
75971;SDS011;64651;47.540;19.088;2023-05-07T23:26:29;10.57;;;4.23;;
75971;SDS011;64651;47.540;19.088;2023-05-07T23:31:31;9.80;;;3.87;;
75971;SDS011;64651;47.540;19.088;2023-05-07T23:36:33;9.68;;;4.12;;
75971;SDS011;64651;47.540;19.088;2023-05-07T23:41:35;11.65;;;4.47;;
75971;SDS011;64651;47.540;19.088;2023-05-07T23:46:38;11.55;;;4.10;;
75971;SDS011;64651;47.540;19.088;2023-05-07T23:51:40;10.40;;;4.13;;
75971;SDS011;64651;47.540;19.088;2023-05-07T23:56:42;9.63;;;4.00;;
